Time;durP1;ratioP1;P1;durP2;ratioP2;P2;SDS_P1;SDS_P2;PMS_P1;PMS_P2;Temp;Humidity;BMP_temperature;BMP_pressure;BME280_temperature;BME280_humidity;BME280_pressure;Samples;Min_cycle;Max_cycle;Signal;HPM_P1;HPM_P2
2022/04/06 00:01:48;;;;;;;26.02;13.23;;;9.30;99.90;;;;;;5043563;28;20120;-54
2022/04/06 00:04:14;;;;;;;30.30;13.63;;;9.30;99.90;;;;;;5049660;28;20036;-55
2022/04/06 00:06:40;;;;;;;27.00;11.25;;;9.30;99.90;;;;;;5031227;28;20044;-55
2022/04/06 00:09:06;;;;;;;30.75;12.18;;;9.30;99.90;;;;;;5051062;28;20063;-55
2022/04/06 00:11:33;;;;;;;34.92;13.13;;;9.30;99.90;;;;;;5050998;28;20041;-55
2022/04/06 00:13:59;;;;;;;31.30;13.60;;;9.30;99.90;;;;;;5033257;28;20041;-55
2022/04/06 00:16:25;;;;;;;32.47;12.43;;;9.30;99.90;;;;;;5051120;28;20040;-55
2022/04/06 00:18:51;;;;;;;33.33;14.07;;;9.30;99.90;;;;;;5033295;28;20068;-55
2022/04/06 00:21:17;;;;;;;27.70;13.38;;;9.30;99.90;;;;;;5050627;28;20044;-55
2022/04/06 00:23:43;;;;;;;33.22;13.73;;;9.20;99.90;;;;;;5051670;28;20041;-55
2022/04/06 00:26:09;;;;;;;40.60;14.07;;;9.20;99.90;;;;;;5050397;28;20033;-55
2022/04/06 00:28:34;;;;;;;32.47;12.82;;;9.30;99.90;;;;;;5051256;28;20071;-55
2022/04/06 00:31:00;;;;;;;29.15;13.23;;;9.20;99.90;;;;;;5051282;28;20049;-55
2022/04/06 00:33:26;;;;;;;29.42;12.95;;;9.20;99.90;;;;;;5050809;28;20094;-55
2022/04/06 00:35:52;;;;;;;34.20;13.77;;;9.30;99.90;;;;;;5017120;28;20033;-55
2022/04/06 00:38:17;;;;;;;29.33;12.30;;;9.20;99.90;;;;;;5050611;28;20135;-55
2022/04/06 00:40:44;;;;;;;30.40;12.27;;;9.30;99.90;;;;;;5050561;28;20044;-54
2022/04/06 00:43:13;;;;;;;30.30;13.48;;;9.30;99.90;;;;;;5033588;28;20037;-54
2022/04/06 00:45:40;;;;;;;31.45;13.10;;;9.30;99.90;;;;;;5032138;28;20037;-55
2022/04/06 00:48:07;;;;;;;32.85;13.15;;;9.20;99.90;;;;;;5030842;28;20047;-55
2022/04/06 00:50:34;;;;;;;32.63;13.65;;;9.20;99.90;;;;;;5050511;28;20524;-55
2022/04/06 00:53:00;;;;;;;32.08;13.25;;;9.20;99.90;;;;;;5050587;28;20036;-55
2022/04/06 00:55:37;;;;;;;22.55;11.13;;;9.20;99.90;;;;;;5049922;28;20485;-54
2022/04/06 00:58:04;;;;;;;33.10;12.32;;;9.20;99.90;;;;;;5031925;28;20040;-54
2022/04/06 01:00:31;;;;;;;26.58;12.13;;;9.20;99.90;;;;;;5049781;28;20370;-54
2022/04/06 01:02:57;;;;;;;31.52;11.93;;;9.20;99.90;;;;;;5043852;28;20068;-54
2022/04/06 01:05:25;;;;;;;28.60;12.02;;;9.30;99.90;;;;;;5033147;28;20416;-54
2022/04/06 01:07:52;;;;;;;29.83;11.85;;;9.20;99.90;;;;;;5050008;28;20390;-55
2022/04/06 01:10:19;;;;;;;29.73;10.70;;;9.20;99.90;;;;;;5051204;28;20045;-55
2022/04/06 01:12:46;;;;;;;27.75;10.57;;;9.20;99.90;;;;;;5052810;28;20055;-54
2022/04/06 01:15:12;;;;;;;26.13;10.73;;;9.20;99.90;;;;;;5054171;28;20072;-54
2022/04/06 01:17:38;;;;;;;28.15;11.35;;;9.20;99.90;;;;;;5035679;28;20478;-55
2022/04/06 01:20:07;;;;;;;28.77;11.10;;;9.20;99.90;;;;;;5047793;28;20045;-55
2022/04/06 01:22:32;;;;;;;30.77;10.95;;;9.30;99.90;;;;;;5052078;28;20048;-54
2022/04/06 01:24:58;;;;;;;28.90;11.00;;;9.30;99.90;;;;;;5053827;28;20033;-54
2022/04/06 01:27:24;;;;;;;26.20;10.55;;;9.30;99.90;;;;;;5053001;28;20037;-55
2022/04/06 01:29:52;;;;;;;25.10;10.45;;;9.30;99.90;;;;;;5052792;28;20587;-54
2022/04/06 01:32:20;;;;;;;28.95;9.63;;;9.20;99.90;;;;;;5053683;28;20047;-55
2022/04/06 01:34:46;;;;;;;22.85;8.93;;;9.30;99.90;;;;;;5053604;28;20048;-54
2022/04/06 01:37:13;;;;;;;28.75;9.95;;;9.30;99.90;;;;;;5053428;28;20450;-55
2022/04/06 01:39:41;;;;;;;24.63;9.60;;;9.30;99.90;;;;;;5052512;28;20278;-54
2022/04/06 01:42:08;;;;;;;26.42;9.52;;;9.30;99.90;;;;;;5035632;23;20333;-50
2022/04/06 01:44:34;;;;;;;23.33;9.45;;;9.30;99.90;;;;;;5077280;28;20033;-51
2022/04/06 01:47:01;;;;;;;28.15;8.80;;;9.30;99.90;;;;;;5081460;28;20037;-53
2022/04/06 01:52:15;;;;;;;30.17;9.00;;;9.20;99.90;;;;;;5072105;28;20609;-50
2022/04/06 01:54:49;;;;;;;27.10;8.88;;;9.30;99.90;;;;;;5055371;28;20056;-50
2022/04/06 01:57:16;;;;;;;24.75;8.23;;;9.30;99.90;;;;;;5062309;28;20040;-49
2022/04/06 01:59:42;;;;;;;29.05;8.85;;;9.30;99.90;;;;;;5073143;28;20079;-53
2022/04/06 02:02:10;;;;;;;22.65;8.75;;;9.30;99.90;;;;;;5065508;28;20052;-53
2022/04/06 02:04:36;;;;;;;24.70;8.52;;;9.30;99.90;;;;;;5065027;28;20029;-53
2022/04/06 02:07:02;;;;;;;23.80;8.68;;;9.30;99.90;;;;;;5071743;28;20115;-52
2022/04/06 02:09:28;;;;;;;21.70;7.45;;;9.30;99.90;;;;;;5072991;28;20670;-54
2022/04/06 02:11:54;;;;;;;29.42;8.40;;;9.30;99.90;;;;;;5072743;28;20170;-50
2022/04/06 02:14:20;;;;;;;20.42;7.72;;;9.30;99.90;;;;;;5067233;28;20044;-53
2022/04/06 02:16:45;;;;;;;22.83;7.68;;;9.40;99.90;;;;;;5072403;28;20036;-50
2022/04/06 02:19:11;;;;;;;23.52;8.00;;;9.30;99.90;;;;;;5073068;28;20449;-51
2022/04/06 02:21:37;;;;;;;26.63;8.90;;;9.30;99.90;;;;;;5072582;28;21359;-52
2022/04/06 02:24:02;;;;;;;19.35;7.53;;;9.30;99.90;;;;;;5072780;28;20111;-53
2022/04/06 02:26:28;;;;;;;22.20;8.05;;;9.30;99.90;;;;;;5072132;28;20045;-50
2022/04/06 02:28:55;;;;;;;22.73;7.75;;;9.30;99.90;;;;;;5072503;28;20371;-52
2022/04/06 02:31:21;;;;;;;23.08;8.18;;;9.30;99.90;;;;;;5072628;28;20369;-52
2022/04/06 02:33:47;;;;;;;23.80;7.88;;;9.30;99.90;;;;;;5072567;28;20095;-50
2022/04/06 02:36:12;;;;;;;24.35;7.68;;;9.30;99.90;;;;;;5072564;28;20389;-50
2022/04/06 02:38:38;;;;;;;28.38;8.32;;;9.30;99.90;;;;;;5071816;28;20036;-50
2022/04/06 02:41:06;;;;;;;31.50;7.47;;;9.30;99.90;;;;;;5072325;28;20040;-50
2022/04/06 02:43:32;;;;;;;25.55;8.48;;;9.40;99.90;;;;;;5065042;28;20041;-53
2022/04/06 02:45:57;;;;;;;25.85;9.00;;;9.30;99.90;;;;;;5071328;28;20044;-50
2022/04/06 02:48:23;;;;;;;26.95;8.38;;;9.30;99.90;;;;;;5072482;28;20043;-50
2022/04/06 02:50:48;;;;;;;24.52;7.78;;;9.30;99.90;;;;;;5072103;28;20036;-50
2022/04/06 02:53:14;;;;;;;27.02;9.93;;;9.30;99.90;;;;;;5072085;28;20061;-50
2022/04/06 02:55:40;;;;;;;32.78;9.73;;;9.40;99.90;;;;;;5071969;28;20040;-53
2022/04/06 02:58:05;;;;;;;29.45;8.30;;;9.30;99.90;;;;;;5067072;28;20039;-51
2022/04/06 03:00:32;;;;;;;27.98;9.43;;;9.40;99.90;;;;;;5071621;28;20423;-50
2022/04/06 03:02:58;;;;;;;32.20;9.80;;;9.30;99.90;;;;;;5071986;28;20041;-51
2022/04/06 03:05:25;;;;;;;24.52;9.65;;;9.40;99.90;;;;;;5072124;28;20151;-50
2022/04/06 03:07:51;;;;;;;29.85;10.10;;;9.30;99.90;;;;;;5071440;28;20037;-49
2022/04/06 03:10:16;;;;;;;26.08;10.07;;;9.30;99.90;;;;;;5057038;28;20055;-52
2022/04/06 03:12:42;;;;;;;27.83;11.18;;;9.40;99.90;;;;;;5071758;28;20400;-52
2022/04/06 03:15:08;;;;;;;32.03;10.52;;;9.30;99.90;;;;;;5070946;28;20503;-53
2022/04/06 03:17:35;;;;;;;29.95;10.57;;;9.30;99.90;;;;;;5046609;28;20040;-50
2022/04/06 03:20:02;;;;;;;31.75;9.93;;;9.40;99.90;;;;;;5071363;28;20044;-52
2022/04/06 03:22:28;;;;;;;40.20;11.90;;;9.40;99.90;;;;;;5071519;28;20250;-51
2022/04/06 03:24:54;;;;;;;31.90;11.95;;;9.40;99.90;;;;;;5053941;28;20041;-54
2022/04/06 03:27:20;;;;;;;32.88;11.80;;;9.30;99.90;;;;;;5070994;28;20404;-50
2022/04/06 03:29:45;;;;;;;30.00;11.48;;;9.40;99.90;;;;;;5072092;28;20403;-50
2022/04/06 03:32:11;;;;;;;31.10;11.77;;;9.40;99.90;;;;;;5070563;28;20395;-51
2022/04/06 03:34:37;;;;;;;34.28;11.75;;;9.40;99.90;;;;;;5053714;28;20666;-51
2022/04/06 03:37:03;;;;;;;23.42;11.15;;;9.40;99.90;;;;;;5071093;28;20036;-51
2022/04/06 03:39:28;;;;;;;29.65;11.27;;;9.40;99.90;;;;;;5053011;28;20385;-55
2022/04/06 03:41:54;;;;;;;30.10;11.50;;;9.50;99.90;;;;;;5070905;28;20044;-50
2022/04/06 03:44:19;;;;;;;27.58;10.93;;;9.50;99.90;;;;;;5071404;28;20041;-51
2022/04/06 03:46:45;;;;;;;32.88;10.90;;;9.40;99.90;;;;;;5053070;28;20054;-52
2022/04/06 03:49:10;;;;;;;29.80;10.48;;;9.40;99.90;;;;;;5063533;28;20040;-50
2022/04/06 03:51:36;;;;;;;28.60;10.65;;;9.40;99.90;;;;;;5069112;28;20051;-53
2022/04/06 03:54:03;;;;;;;26.80;9.52;;;9.40;99.90;;;;;;5070813;28;20047;-52
2022/04/06 03:56:29;;;;;;;31.70;9.98;;;9.50;99.90;;;;;;5063227;28;20171;-51
2022/04/06 03:58:54;;;;;;;28.33;10.40;;;9.40;99.90;;;;;;5053362;28;20048;-52
2022/04/06 04:01:20;;;;;;;24.15;9.15;;;9.40;99.90;;;;;;5070726;28;20139;-49
2022/04/06 04:03:46;;;;;;;21.98;8.75;;;9.40;99.90;;;;;;5051067;28;20033;-51
2022/04/06 04:06:11;;;;;;;29.58;9.68;;;9.40;99.90;;;;;;5070555;28;20024;-50
2022/04/06 04:08:37;;;;;;;25.58;8.75;;;9.40;99.90;;;;;;5069305;28;20047;-54
2022/04/06 04:11:03;;;;;;;25.95;9.15;;;9.50;99.90;;;;;;5070433;28;20035;-50
2022/04/06 04:13:28;;;;;;;21.55;8.50;;;9.40;99.90;;;;;;5070536;28;20044;-51
2022/04/06 04:15:54;;;;;;;22.73;8.32;;;9.40;99.90;;;;;;5053077;28;20048;-52
2022/04/06 04:18:19;;;;;;;26.70;8.73;;;9.50;99.90;;;;;;5069268;28;20048;-51
2022/04/06 04:20:45;;;;;;;24.65;8.27;;;9.50;99.90;;;;;;5069195;28;20056;-52
2022/04/06 04:23:14;;;;;;;22.92;8.65;;;9.40;99.90;;;;;;5051037;28;20493;-51
2022/04/06 04:25:40;;;;;;;25.65;8.27;;;9.40;99.90;;;;;;5070576;28;20032;-53
2022/04/06 04:28:06;;;;;;;22.90;8.65;;;9.40;99.90;;;;;;5070238;28;20068;-53
2022/04/06 04:30:32;;;;;;;23.65;7.97;;;9.40;99.90;;;;;;5070977;28;20523;-53
2022/04/06 04:32:58;;;;;;;20.45;8.40;;;9.30;99.90;;;;;;5062751;28;20044;-54
2022/04/06 04:35:24;;;;;;;20.13;7.88;;;9.30;99.90;;;;;;5070370;28;20485;-53
2022/04/06 04:37:49;;;;;;;19.10;6.85;;;9.30;99.90;;;;;;5070744;28;20094;-50
2022/04/06 04:40:20;;;;;;;24.00;8.10;;;9.40;99.90;;;;;;5070021;28;20095;-51
2022/04/06 04:42:46;;;;;;;17.85;6.90;;;9.30;99.90;;;;;;5070272;28;20041;-53
2022/04/06 04:45:11;;;;;;;24.10;8.48;;;9.30;99.90;;;;;;5056215;28;20385;-51
2022/04/06 04:47:40;;;;;;;25.92;8.02;;;9.30;99.90;;;;;;5074312;28;20044;-52
2022/04/06 04:50:06;;;;;;;19.63;8.15;;;9.20;99.90;;;;;;5074738;28;20036;-51
2022/04/06 04:52:32;;;;;;;25.10;7.93;;;9.20;99.90;;;;;;5073942;28;20488;-55
2022/04/06 04:54:57;;;;;;;23.58;7.80;;;9.30;99.90;;;;;;5073913;28;20064;-53
2022/04/06 04:57:23;;;;;;;18.25;7.05;;;9.20;99.90;;;;;;5073867;28;20124;-51
2022/04/06 04:59:52;;;;;;;19.63;6.90;;;9.30;99.90;;;;;;5074488;28;20044;-55
2022/04/06 05:02:18;;;;;;;21.48;6.88;;;9.30;99.90;;;;;;5072913;28;20152;-51
2022/04/06 05:04:44;;;;;;;25.92;7.55;;;9.20;99.90;;;;;;5073938;28;20086;-53
2022/04/06 05:07:10;;;;;;;19.60;7.05;;;9.20;99.90;;;;;;5073631;28;20032;-53
2022/04/06 05:09:35;;;;;;;24.33;6.88;;;9.20;99.90;;;;;;5070959;28;20547;-51
2022/04/06 05:12:01;;;;;;;20.08;6.45;;;9.20;99.90;;;;;;5074333;28;20041;-55
2022/04/06 05:14:27;;;;;;;22.30;7.00;;;9.20;99.90;;;;;;5074165;28;20040;-51
2022/04/06 05:16:52;;;;;;;19.13;6.85;;;9.20;99.90;;;;;;5055349;28;20044;-51
2022/04/06 05:19:18;;;;;;;18.50;6.10;;;9.20;99.90;;;;;;5073690;28;20037;-51
2022/04/06 05:21:43;;;;;;;12.35;5.72;;;9.20;99.90;;;;;;5055414;28;20043;-54
2022/04/06 05:24:09;;;;;;;17.85;5.38;;;9.10;99.90;;;;;;5072716;28;20037;-52
2022/04/06 05:26:34;;;;;;;15.77;5.30;;;9.10;99.90;;;;;;5066366;28;20190;-53
2022/04/06 05:29:00;;;;;;;19.77;5.15;;;9.20;99.90;;;;;;5073608;28;20028;-53
2022/04/06 05:31:26;;;;;;;14.60;4.70;;;9.20;99.90;;;;;;5073640;28;20435;-52
2022/04/06 05:33:51;;;;;;;14.32;4.93;;;9.20;99.90;;;;;;5073420;28;20044;-56
2022/04/06 05:36:17;;;;;;;11.98;4.47;;;9.20;99.90;;;;;;5073032;28;20032;-50
2022/04/06 05:38:43;;;;;;;15.38;4.50;;;9.10;99.90;;;;;;5073391;28;20107;-53
2022/04/06 05:41:08;;;;;;;15.88;4.05;;;9.10;99.90;;;;;;5068339;28;20044;-55
2022/04/06 05:43:34;;;;;;;12.27;4.15;;;9.10;99.90;;;;;;5067046;28;20047;-51
2022/04/06 05:45:59;;;;;;;12.70;3.80;;;9.10;99.90;;;;;;5073137;28;20020;-53
2022/04/06 05:48:25;;;;;;;12.15;4.03;;;9.10;99.90;;;;;;5071758;28;20079;-50
2022/04/06 05:50:51;;;;;;;11.98;3.75;;;9.30;99.90;;;;;;5069216;28;20037;-54
2022/04/06 05:53:17;;;;;;;8.68;3.42;;;9.20;99.90;;;;;;5069811;28;20036;-53
2022/04/06 05:55:45;;;;;;;11.10;3.38;;;9.10;99.90;;;;;;5072153;28;20048;-55
2022/04/06 05:58:11;;;;;;;10.60;3.55;;;9.10;99.90;;;;;;5072654;28;20044;-52
2022/04/06 06:00:36;;;;;;;11.70;3.30;;;9.20;99.90;;;;;;5072792;28;20110;-55
2022/04/06 06:03:02;;;;;;;13.73;3.15;;;9.20;99.90;;;;;;5055163;28;20033;-53
2022/04/06 06:05:27;;;;;;;12.40;2.95;;;9.10;99.90;;;;;;5063579;28;20287;-52
2022/04/06 06:07:53;;;;;;;15.00;3.45;;;9.20;99.90;;;;;;5063293;28;20032;-53
2022/04/06 06:10:20;;;;;;;11.85;2.95;;;9.20;99.90;;;;;;5062218;28;20033;-56
2022/04/06 06:12:46;;;;;;;11.45;3.83;;;9.20;99.90;;;;;;5063915;28;20032;-51
2022/04/06 06:15:12;;;;;;;13.05;3.63;;;9.20;99.90;;;;;;5066534;28;20464;-53
2022/04/06 06:17:39;;;;;;;15.27;3.33;;;9.20;99.90;;;;;;5061306;28;20436;-52
2022/04/06 06:20:05;;;;;;;14.00;3.58;;;9.20;99.90;;;;;;5065648;28;20068;-51
2022/04/06 06:22:31;;;;;;;14.10;3.40;;;9.20;99.90;;;;;;5063625;28;20549;-54
2022/04/06 06:24:56;;;;;;;11.25;3.25;;;9.20;99.90;;;;;;5068869;28;20036;-53
2022/04/06 06:27:23;;;;;;;11.23;3.15;;;9.20;99.90;;;;;;5050070;28;20036;-53
2022/04/06 06:29:49;;;;;;;13.57;3.50;;;9.20;99.90;;;;;;5066175;28;20079;-54
2022/04/06 06:32:15;;;;;;;16.23;3.28;;;9.20;99.90;;;;;;5069590;28;20056;-53
2022/04/06 06:34:40;;;;;;;12.30;2.95;;;9.20;99.90;;;;;;5063939;28;20037;-53
2022/04/06 06:37:06;;;;;;;14.50;3.60;;;9.20;99.90;;;;;;5068692;28;20033;-52
2022/04/06 06:39:31;;;;;;;12.43;3.72;;;9.20;99.90;;;;;;5064938;28;20052;-50
2022/04/06 06:41:57;;;;;;;16.60;3.53;;;9.20;99.90;;;;;;5052008;28;20033;-53
2022/04/06 06:44:23;;;;;;;10.48;2.90;;;9.10;99.90;;;;;;5066246;28;20075;-53
2022/04/06 06:46:48;;;;;;;16.85;3.38;;;9.20;99.90;;;;;;5046596;28;20085;-53
2022/04/06 06:49:15;;;;;;;13.38;3.20;;;9.20;99.90;;;;;;5047061;28;20041;-53
2022/04/06 06:51:41;;;;;;;14.77;3.35;;;9.10;99.90;;;;;;5068883;28;20044;-53
2022/04/06 06:54:07;;;;;;;11.93;3.20;;;9.10;99.90;;;;;;5065489;28;20044;-52
2022/04/06 06:56:33;;;;;;;11.30;3.40;;;9.10;99.90;;;;;;5065590;28;20040;-50
2022/04/06 06:58:58;;;;;;;7.50;2.72;;;9.10;99.90;;;;;;5048940;28;20501;-53
2022/04/06 07:01:24;;;;;;;10.50;3.38;;;9.10;99.90;;;;;;5063981;28;20035;-50
2022/04/06 07:03:49;;;;;;;11.55;3.17;;;9.00;99.90;;;;;;5062476;28;20752;-52
2022/04/06 07:06:16;;;;;;;17.25;3.35;;;9.10;99.90;;;;;;5064978;28;20043;-53
2022/04/06 07:08:42;;;;;;;11.77;2.97;;;9.10;99.90;;;;;;5064508;28;20056;-51
2022/04/06 07:11:08;;;;;;;11.85;3.42;;;9.10;99.90;;;;;;5062821;28;20036;-51
2022/04/06 07:13:34;;;;;;;11.70;3.35;;;9.10;99.90;;;;;;5066882;28;20380;-50
2022/04/06 07:15:59;;;;;;;11.52;3.53;;;9.20;99.90;;;;;;5066677;28;20477;-50
2022/04/06 07:18:25;;;;;;;11.88;3.70;;;9.20;99.90;;;;;;5047430;28;20041;-53
2022/04/06 07:20:51;;;;;;;16.70;3.80;;;9.20;99.90;;;;;;5064219;28;20040;-52
2022/04/06 07:23:16;;;;;;;15.75;4.35;;;9.20;99.90;;;;;;5056617;28;20029;-53
2022/04/06 07:25:42;;;;;;;12.85;3.60;;;9.20;99.90;;;;;;5059882;28;20040;-51
2022/04/06 07:28:08;;;;;;;11.90;3.85;;;9.20;99.90;;;;;;5041000;28;20048;-54
2022/04/06 07:30:34;;;;;;;14.02;4.18;;;9.20;99.90;;;;;;5069218;28;20124;-57
2022/04/06 07:32:59;;;;;;;17.35;4.30;;;9.20;99.90;;;;;;5065693;28;20095;-57
2022/04/06 07:35:25;;;;;;;21.67;4.53;;;9.20;99.90;;;;;;5072095;28;20064;-55
2022/04/06 07:37:51;;;;;;;11.45;4.22;;;9.20;99.90;;;;;;5066816;28;20040;-56
2022/04/06 07:40:21;;;;;;;12.80;4.13;;;9.20;99.90;;;;;;5071146;28;20043;-56
2022/04/06 07:42:49;;;;;;;17.80;5.32;;;9.20;99.90;;;;;;5069827;28;20433;-56
2022/04/06 07:45:17;;;;;;;12.23;4.68;;;9.20;99.90;;;;;;5071098;28;20170;-56
2022/04/06 07:47:43;;;;;;;15.55;5.43;;;9.20;99.90;;;;;;5069827;28;20036;-56
2022/04/06 07:50:10;;;;;;;16.30;5.10;;;9.20;99.90;;;;;;5071324;28;20048;-54
2022/04/06 07:52:36;;;;;;;18.58;5.53;;;9.30;99.90;;;;;;5069748;28;20054;-54
2022/04/06 07:55:06;;;;;;;17.95;5.22;;;9.20;99.90;;;;;;5049744;28;20229;-55
2022/04/06 07:57:32;;;;;;;19.33;5.63;;;9.20;99.90;;;;;;5066994;28;20408;-52
2022/04/06 08:00:00;;;;;;;19.23;5.93;;;9.30;99.90;;;;;;5069834;28;20033;-51
2022/04/06 08:02:25;;;;;;;15.65;5.65;;;9.20;99.90;;;;;;5070594;28;20397;-51
2022/04/06 08:04:51;;;;;;;15.45;5.25;;;9.30;99.90;;;;;;5070168;28;20043;-52
2022/04/06 08:07:17;;;;;;;11.52;5.45;;;9.30;99.90;;;;;;5069529;28;20050;-52
2022/04/06 08:09:42;;;;;;;16.75;6.03;;;9.40;99.90;;;;;;5068588;28;20119;-50
2022/04/06 08:12:08;;;;;;;12.73;4.63;;;9.40;99.90;;;;;;5068221;28;20068;-50
2022/04/06 08:14:33;;;;;;;15.25;4.57;;;9.40;99.90;;;;;;5070214;28;20468;-51
2022/04/06 08:16:59;;;;;;;14.55;5.25;;;9.50;99.90;;;;;;5057709;28;20032;-50
2022/04/06 08:23:12;;;;;;;14.93;4.80;;;9.50;99.90;;;;;;5065992;28;20039;-50
2022/04/06 08:25:38;;;;;;;13.90;4.17;;;9.50;99.90;;;;;;5067723;28;20534;-50
2022/04/06 08:28:08;;;;;;;10.45;4.30;;;9.50;99.90;;;;;;5069225;28;20294;-50
2022/04/06 08:30:40;;;;;;;15.40;4.25;;;9.50;99.90;;;;;;5070613;28;20047;-52
2022/04/06 08:33:06;;;;;;;15.68;4.05;;;9.50;99.90;;;;;;5070339;28;20178;-51
2022/04/06 08:35:31;;;;;;;14.43;4.65;;;9.50;99.90;;;;;;5070345;28;20135;-53
2022/04/06 08:37:57;;;;;;;14.57;4.22;;;9.50;99.90;;;;;;5070340;28;20115;-54
2022/04/06 08:40:23;;;;;;;15.88;4.10;;;9.50;99.90;;;;;;5070236;28;20582;-53
2022/04/06 08:42:49;;;;;;;13.35;3.90;;;9.50;99.90;;;;;;5069837;28;20430;-54
2022/04/06 08:45:16;;;;;;;15.70;4.03;;;9.50;99.90;;;;;;5067494;28;20044;-56
2022/04/06 08:47:44;;;;;;;13.90;3.67;;;9.50;99.90;;;;;;5066509;28;20033;-56
2022/04/06 08:50:10;;;;;;;15.73;4.18;;;9.40;99.90;;;;;;5059227;28;20432;-55
2022/04/06 08:52:36;;;;;;;12.32;3.65;;;9.40;99.90;;;;;;5061054;28;20045;-55
2022/04/06 08:55:02;;;;;;;11.55;3.75;;;9.40;99.90;;;;;;5062113;28;20036;-55
2022/04/06 08:57:27;;;;;;;16.38;4.25;;;9.40;99.90;;;;;;5057476;28;20337;-55
2022/04/06 08:59:54;;;;;;;11.02;4.03;;;9.40;99.90;;;;;;5056996;28;20136;-55
2022/04/06 09:02:20;;;;;;;11.70;3.92;;;9.40;99.90;;;;;;5057643;28;20037;-56
2022/04/06 09:04:51;;;;;;;18.58;5.00;;;9.30;99.90;;;;;;5058569;28;20059;-55
2022/04/06 09:07:19;;;;;;;17.95;4.88;;;9.30;99.90;;;;;;5057454;28;20439;-56
2022/04/06 09:09:51;;;;;;;10.82;4.50;;;9.30;99.90;;;;;;5059335;28;20988;-55
2022/04/06 09:12:19;;;;;;;14.90;4.32;;;9.30;99.90;;;;;;5055741;28;20040;-56
2022/04/06 09:14:45;;;;;;;13.15;4.88;;;9.30;99.90;;;;;;5059669;28;20105;-55
2022/04/06 09:17:11;;;;;;;14.90;4.32;;;9.30;99.90;;;;;;5058989;28;20036;-56
2022/04/06 09:19:47;;;;;;;11.70;3.80;;;9.30;99.90;;;;;;5061835;28;20036;-55
2022/04/06 09:22:13;;;;;;;9.25;3.75;;;9.40;99.90;;;;;;5062611;28;20037;-55
2022/04/06 09:24:39;;;;;;;10.45;4.00;;;9.40;99.90;;;;;;5063585;28;20455;-55
2022/04/06 09:27:05;;;;;;;10.32;4.53;;;9.50;99.90;;;;;;5064998;28;20244;-55
2022/04/06 09:29:31;;;;;;;11.20;4.57;;;9.50;99.90;;;;;;5063083;28;20530;-55
2022/04/06 09:32:06;;;;;;;13.15;4.68;;;9.60;99.90;;;;;;5067270;28;20108;-55
2022/04/06 09:34:33;;;;;;;13.70;4.35;;;9.60;99.90;;;;;;5068028;28;20074;-55
2022/04/06 09:36:58;;;;;;;9.88;5.18;;;9.70;99.90;;;;;;5069262;28;20080;-55
2022/04/06 09:39:44;;;;;;;13.18;4.47;;;9.80;99.90;;;;;;5068376;28;20068;-55
2022/04/06 09:42:20;;;;;;;16.90;4.50;;;9.80;99.90;;;;;;5059103;28;20033;-55
2022/04/06 09:47:41;;;;;;;13.07;5.23;;;9.80;99.90;;;;;;5062500;28;20042;-55
2022/04/06 09:50:22;;;;;;;15.60;5.28;;;9.80;99.90;;;;;;5065243;28;20125;-55
2022/04/06 09:52:52;;;;;;;11.05;4.78;;;9.80;99.90;;;;;;5063560;28;20036;-54
2022/04/06 09:55:20;;;;;;;14.85;5.00;;;9.90;99.90;;;;;;5069046;28;20298;-55
2022/04/06 09:57:50;;;;;;;13.80;5.70;;;10.00;99.90;;;;;;5068634;28;20044;-55
2022/04/06 10:00:28;;;;;;;15.40;6.53;;;10.00;99.90;;;;;;5066659;28;20609;-56
2022/04/06 10:03:08;;;;;;;11.10;5.10;;;10.00;99.90;;;;;;5069631;28;20115;-54
2022/04/06 10:05:35;;;;;;;15.73;5.43;;;10.00;99.90;;;;;;5066467;28;20032;-55
2022/04/06 10:08:05;;;;;;;16.58;5.65;;;10.00;99.90;;;;;;5054384;28;20509;-55
2022/04/06 10:10:32;;;;;;;14.15;5.85;;;10.00;99.90;;;;;;5046841;28;20041;-55
2022/04/06 10:12:58;;;;;;;12.80;5.25;;;10.10;99.90;;;;;;5034250;28;20040;-55
2022/04/06 10:15:27;;;;;;;20.30;5.95;;;10.00;99.90;;;;;;5044779;28;20407;-54
2022/04/06 10:17:53;;;;;;;16.40;5.78;;;10.00;99.90;;;;;;5065011;28;20090;-54
2022/04/06 10:20:31;;;;;;;17.63;6.20;;;10.10;99.90;;;;;;5063432;28;20036;-55
2022/04/06 10:23:10;;;;;;;15.95;6.22;;;10.10;99.90;;;;;;5065558;28;20044;-55
2022/04/06 10:25:54;;;;;;;19.05;5.65;;;10.20;99.90;;;;;;5058810;28;20494;-55
2022/04/06 10:28:21;;;;;;;13.73;5.80;;;10.20;99.90;;;;;;5063293;28;20033;-55
2022/04/06 10:31:13;;;;;;;15.02;5.38;;;10.30;99.90;;;;;;5066038;28;20043;-55
2022/04/06 10:33:39;;;;;;;12.48;5.40;;;10.30;99.90;;;;;;5063297;28;20043;-54
2022/04/06 10:36:26;;;;;;;13.73;5.53;;;10.30;99.90;;;;;;5062470;28;20067;-55
2022/04/06 10:39:04;;;;;;;11.48;5.60;;;10.20;99.90;;;;;;5063379;28;20404;-54
2022/04/06 10:41:30;;;;;;;19.17;5.70;;;10.30;99.90;;;;;;5062392;28;20045;-55
2022/04/06 10:43:56;;;;;;;14.85;6.18;;;10.30;99.90;;;;;;5060274;28;20037;-55
2022/04/06 10:46:38;;;;;;;13.57;5.68;;;10.30;99.90;;;;;;5061703;28;20040;-55
2022/04/06 10:49:06;;;;;;;12.07;5.82;;;10.20;99.90;;;;;;5061963;28;20277;-55
2022/04/06 10:51:37;;;;;;;12.02;5.88;;;10.20;99.90;;;;;;5065678;28;20135;-55
2022/04/06 10:54:12;;;;;;;13.48;6.18;;;10.20;99.90;;;;;;5064852;28;20040;-54
2022/04/06 10:56:50;;;;;;;11.65;6.07;;;10.20;99.90;;;;;;5064678;28;20033;-54
2022/04/06 10:59:19;;;;;;;17.67;7.32;;;10.20;99.90;;;;;;5068060;28;20102;-54
2022/04/06 11:01:48;;;;;;;13.02;6.20;;;10.20;99.90;;;;;;5066541;28;20487;-54
2022/04/06 11:04:19;;;;;;;20.08;7.10;;;10.20;99.90;;;;;;5060492;28;20048;-53
2022/04/06 11:06:59;;;;;;;15.55;7.25;;;10.20;99.90;;;;;;5061727;28;20483;-54
2022/04/06 11:10:09;;;;;;;17.48;6.93;;;10.20;99.90;;;;;;5067047;28;20123;-54
2022/04/06 11:12:54;;;;;;;13.93;7.18;;;10.20;99.90;;;;;;5064795;28;20098;-54
2022/04/06 11:15:20;;;;;;;14.50;7.00;;;10.10;99.90;;;;;;5064195;28;20059;-54
2022/04/06 11:17:48;;;;;;;17.30;7.18;;;10.20;99.90;;;;;;5071417;28;20496;-54
2022/04/06 11:20:19;;;;;;;17.58;7.90;;;10.10;99.90;;;;;;5051498;28;20047;-54
2022/04/06 11:22:53;;;;;;;17.20;7.75;;;10.10;99.90;;;;;;5069599;28;20528;-54
2022/04/06 11:25:21;;;;;;;19.48;8.25;;;10.20;99.90;;;;;;5065482;28;20488;-54
2022/04/06 11:27:48;;;;;;;15.88;8.48;;;10.20;99.90;;;;;;5053014;28;20055;-54
2022/04/06 11:30:22;;;;;;;20.42;8.25;;;10.30;99.90;;;;;;5069959;28;20036;-54
2022/04/06 11:32:56;;;;;;;15.48;7.55;;;10.40;99.90;;;;;;5071264;28;20044;-54
2022/04/06 11:35:36;;;;;;;19.90;8.35;;;10.50;99.90;;;;;;5070881;28;20036;-53
2022/04/06 11:38:06;;;;;;;17.48;9.00;;;10.60;99.90;;;;;;5070914;28;20500;-54
2022/04/06 11:40:33;;;;;;;16.33;8.13;;;10.60;99.90;;;;;;5071100;28;20051;-55
2022/04/06 11:43:04;;;;;;;21.30;8.63;;;10.70;99.90;;;;;;5053278;28;20028;-55
2022/04/06 11:45:32;;;;;;;15.27;8.68;;;10.70;99.90;;;;;;5069837;28;20043;-55
2022/04/06 11:48:00;;;;;;;20.30;8.30;;;10.80;99.90;;;;;;5070401;28;20036;-53
2022/04/06 11:50:37;;;;;;;19.02;8.13;;;10.70;99.90;;;;;;5070834;28;20049;-53
2022/04/06 11:53:15;;;;;;;22.80;9.82;;;10.70;99.90;;;;;;5045605;28;20045;-55
2022/04/06 11:55:51;;;;;;;17.55;9.25;;;10.80;99.90;;;;;;5055681;28;20071;-55
2022/04/06 11:58:33;;;;;;;17.45;8.93;;;10.90;99.90;;;;;;5063403;28;20036;-54
2022/04/06 12:01:03;;;;;;;18.42;8.15;;;11.00;99.90;;;;;;5062812;28;20093;-55
2022/04/06 12:03:37;;;;;;;20.90;9.02;;;11.10;99.90;;;;;;5067255;28;20049;-53
2022/04/06 12:06:04;;;;;;;14.85;7.63;;;11.20;99.90;;;;;;5070510;28;20040;-55
2022/04/06 12:08:33;;;;;;;17.83;8.60;;;11.20;99.90;;;;;;5067908;28;20634;-55
2022/04/06 12:10:59;;;;;;;19.55;8.63;;;11.20;99.90;;;;;;5070720;28;20078;-54
2022/04/06 12:13:29;;;;;;;14.98;8.25;;;11.20;99.90;;;;;;5071127;28;20127;-55
2022/04/06 12:15:56;;;;;;;19.63;8.00;;;11.30;99.90;;;;;;5069976;28;20055;-54
2022/04/06 12:18:24;;;;;;;17.83;8.43;;;11.30;99.90;;;;;;5065147;28;20052;-56
2022/04/06 12:20:50;;;;;;;17.25;7.47;;;11.30;99.90;;;;;;5067734;28;20049;-56
2022/04/06 12:23:18;;;;;;;15.20;7.95;;;11.20;99.90;;;;;;5069485;28;20064;-56
2022/04/06 12:25:45;;;;;;;14.68;7.40;;;11.20;99.90;;;;;;5070519;28;20047;-53
2022/04/06 12:28:14;;;;;;;14.40;7.70;;;11.10;99.90;;;;;;5069218;28;20051;-55
2022/04/06 12:30:54;;;;;;;12.35;6.93;;;11.20;99.90;;;;;;5070844;28;20154;-54
2022/04/06 12:33:51;;;;;;;14.95;7.75;;;11.20;99.90;;;;;;5068554;28;20040;-55
2022/04/06 12:36:26;;;;;;;18.67;8.65;;;11.20;99.90;;;;;;5069195;28;20036;-55
2022/04/06 12:39:01;;;;;;;14.82;7.82;;;11.20;99.90;;;;;;5064969;28;20108;-55
2022/04/06 12:41:31;;;;;;;13.98;7.15;;;11.20;99.90;;;;;;5041830;28;20036;-56
2022/04/06 12:43:58;;;;;;;14.75;8.35;;;11.10;99.90;;;;;;5050470;28;20045;-56
2022/04/06 12:46:45;;;;;;;17.33;7.65;;;11.10;99.90;;;;;;5069698;28;20043;-54
2022/04/06 12:49:27;;;;;;;18.77;9.10;;;11.20;99.90;;;;;;5052641;28;20040;-55
2022/04/06 12:52:02;;;;;;;16.00;8.50;;;11.20;99.90;;;;;;5070608;28;20459;-55
2022/04/06 12:54:33;;;;;;;12.30;7.57;;;11.20;99.90;;;;;;5069652;28;20419;-55
2022/04/06 12:57:17;;;;;;;15.07;6.97;;;11.20;99.90;;;;;;5068360;28;20211;-55